sensor_id;sensor_type;location;lat;lon;timestamp;pressure;altitude;pressure_sealevel;temperature;humidity
77366;BME280;66430;50.182;11.704;2024-03-02T00:00:10;93582.00;;;8.76;40.25
77366;BME280;66430;50.182;11.704;2024-03-02T00:02:40;93579.94;;;8.72;40.62
77366;BME280;66430;50.182;11.704;2024-03-02T00:05:01;93580.95;;;8.51;40.48
77366;BME280;66430;50.182;11.704;2024-03-02T00:07:24;93577.04;;;8.93;40.09
77366;BME280;66430;50.182;11.704;2024-03-02T00:09:53;93578.43;;;8.87;39.92
77366;BME280;66430;50.182;11.704;2024-03-02T00:12:16;93575.73;;;8.61;40.09
77366;BME280;66430;50.182;11.704;2024-03-02T00:14:40;93575.72;;;8.99;39.78
77366;BME280;66430;50.182;11.704;2024-03-02T00:17:06;93574.40;;;8.57;39.84
77366;BME280;66430;50.182;11.704;2024-03-02T00:19:31;93572.91;;;8.82;39.71
77366;BME280;66430;50.182;11.704;2024-03-02T00:21:56;93570.37;;;8.98;39.88
77366;BME280;66430;50.182;11.704;2024-03-02T00:24:30;93569.73;;;8.53;40.28
77366;BME280;66430;50.182;11.704;2024-03-02T00:26:47;93568.27;;;8.49;39.62
77366;BME280;66430;50.182;11.704;2024-03-02T00:29:16;93565.63;;;8.69;40.00
77366;BME280;66430;50.182;11.704;2024-03-02T00:31:40;93564.56;;;8.78;39.95
77366;BME280;66430;50.182;11.704;2024-03-02T00:34:05;93561.87;;;8.86;39.49
77366;BME280;66430;50.182;11.704;2024-03-02T00:36:29;93562.16;;;8.72;39.62
77366;BME280;66430;50.182;11.704;2024-03-02T00:38:55;93561.48;;;8.53;40.24
77366;BME280;66430;50.182;11.704;2024-03-02T00:41:22;93563.97;;;8.69;39.94
77366;BME280;66430;50.182;11.704;2024-03-02T00:43:48;93565.34;;;8.44;40.26
77366;BME280;66430;50.182;11.704;2024-03-02T00:46:13;93564.14;;;8.92;40.41
77366;BME280;66430;50.182;11.704;2024-03-02T00:48:44;93564.62;;;8.67;40.55
77366;BME280;66430;50.182;11.704;2024-03-02T00:51:02;93565.89;;;8.55;40.19
77366;BME280;66430;50.182;11.704;2024-03-02T00:53:27;93567.62;;;8.68;40.03
77366;BME280;66430;50.182;11.704;2024-03-02T00:55:52;93569.29;;;8.94;40.03
77366;BME280;66430;50.182;11.704;2024-03-02T00:58:18;93573.63;;;8.83;39.81
77366;BME280;66430;50.182;11.704;2024-03-02T01:00:44;93575.68;;;9.17;39.94
77366;BME280;66430;50.182;11.704;2024-03-02T01:03:09;93577.46;;;9.01;40.02
77366;BME280;66430;50.182;11.704;2024-03-02T01:05:34;93578.95;;;8.67;40.05
77366;BME280;66430;50.182;11.704;2024-03-02T01:08:00;93578.71;;;8.85;40.04
77366;BME280;66430;50.182;11.704;2024-03-02T01:10:26;93583.02;;;9.04;40.00
77366;BME280;66430;50.182;11.704;2024-03-02T01:12:51;93581.63;;;8.90;40.12
77366;BME280;66430;50.182;11.704;2024-03-02T01:15:16;93582.50;;;8.81;39.86
77366;BME280;66430;50.182;11.704;2024-03-02T01:17:42;93580.75;;;8.61;40.38
77366;BME280;66430;50.182;11.704;2024-03-02T01:20:09;93582.58;;;8.83;40.06
77366;BME280;66430;50.182;11.704;2024-03-02T01:22:32;93582.57;;;8.94;39.91
77366;BME280;66430;50.182;11.704;2024-03-02T01:24:58;93586.62;;;8.89;39.74
77366;BME280;66430;50.182;11.704;2024-03-02T01:27:24;93585.42;;;8.94;39.56
77366;BME280;66430;50.182;11.704;2024-03-02T01:29:49;93583.53;;;9.19;39.84
77366;BME280;66430;50.182;11.704;2024-03-02T01:32:14;93584.88;;;9.47;39.72
77366;BME280;66430;50.182;11.704;2024-03-02T01:34:39;93584.49;;;8.96;39.72
77366;BME280;66430;50.182;11.704;2024-03-02T01:37:06;93585.57;;;9.23;39.84
77366;BME280;66430;50.182;11.704;2024-03-02T01:39:31;93585.93;;;8.86;39.48
77366;BME280;66430;50.182;11.704;2024-03-02T01:41:55;93583.92;;;9.06;39.52
77366;BME280;66430;50.182;11.704;2024-03-02T01:44:21;93585.61;;;8.72;40.40
77366;BME280;66430;50.182;11.704;2024-03-02T01:46:47;93582.94;;;9.37;39.78
77366;BME280;66430;50.182;11.704;2024-03-02T01:49:11;93580.30;;;8.97;39.60
77366;BME280;66430;50.182;11.704;2024-03-02T01:51:37;93578.66;;;9.03;39.26
77366;BME280;66430;50.182;11.704;2024-03-02T01:54:03;93579.08;;;9.10;39.10
77366;BME280;66430;50.182;11.704;2024-03-02T01:56:28;93578.83;;;9.06;39.39
77366;BME280;66430;50.182;11.704;2024-03-02T01:58:54;93577.50;;;8.97;39.48
77366;BME280;66430;50.182;11.704;2024-03-02T02:01:19;93580.09;;;8.86;39.77
77366;BME280;66430;50.182;11.704;2024-03-02T02:03:45;93582.00;;;8.99;39.63
77366;BME280;66430;50.182;11.704;2024-03-02T02:06:10;93580.79;;;9.53;39.55
77366;BME280;66430;50.182;11.704;2024-03-02T02:08:37;93582.73;;;9.16;39.72
77366;BME280;66430;50.182;11.704;2024-03-02T02:11:02;93583.95;;;9.15;39.72
77366;BME280;66430;50.182;11.704;2024-03-02T02:13:27;93583.91;;;8.81;40.39
77366;BME280;66430;50.182;11.704;2024-03-02T02:15:52;93583.62;;;9.18;39.68
77366;BME280;66430;50.182;11.704;2024-03-02T02:18:17;93583.90;;;9.05;40.12
77366;BME280;66430;50.182;11.704;2024-03-02T02:20:43;93581.81;;;9.16;39.85
77366;BME280;66430;50.182;11.704;2024-03-02T02:23:09;93581.59;;;9.02;40.34
77366;BME280;66430;50.182;11.704;2024-03-02T02:25:34;93578.88;;;9.22;40.10
77366;BME280;66430;50.182;11.704;2024-03-02T02:28:00;93579.49;;;9.32;39.94
77366;BME280;66430;50.182;11.704;2024-03-02T02:30:27;93578.22;;;9.41;39.77
77366;BME280;66430;50.182;11.704;2024-03-02T02:32:50;93580.38;;;9.46;39.62
77366;BME280;66430;50.182;11.704;2024-03-02T02:35:16;93579.18;;;9.40;39.86
77366;BME280;66430;50.182;11.704;2024-03-02T02:37:41;93580.47;;;9.44;39.76
77366;BME280;66430;50.182;11.704;2024-03-02T02:40:08;93580.59;;;9.50;39.67
77366;BME280;66430;50.182;11.704;2024-03-02T02:42:32;93579.71;;;9.46;39.63
77366;BME280;66430;50.182;11.704;2024-03-02T02:44:58;93579.63;;;9.21;39.80
77366;BME280;66430;50.182;11.704;2024-03-02T02:47:23;93577.61;;;9.26;39.81
77366;BME280;66430;50.182;11.704;2024-03-02T02:49:49;93577.18;;;9.27;39.77
77366;BME280;66430;50.182;11.704;2024-03-02T02:52:14;93576.77;;;9.54;39.58
77366;BME280;66430;50.182;11.704;2024-03-02T02:54:39;93572.64;;;9.49;39.68
77366;BME280;66430;50.182;11.704;2024-03-02T02:57:04;93570.66;;;9.55;39.91
77366;BME280;66430;50.182;11.704;2024-03-02T02:59:31;93572.81;;;9.53;39.86
77366;BME280;66430;50.182;11.704;2024-03-02T03:01:55;93571.86;;;9.60;39.70
77366;BME280;66430;50.182;11.704;2024-03-02T03:04:20;93570.84;;;9.41;39.73
77366;BME280;66430;50.182;11.704;2024-03-02T03:06:46;93569.82;;;9.55;39.66
77366;BME280;66430;50.182;11.704;2024-03-02T03:09:11;93571.63;;;9.43;39.83
77366;BME280;66430;50.182;11.704;2024-03-02T03:11:37;93569.50;;;9.53;39.92
77366;BME280;66430;50.182;11.704;2024-03-02T03:14:02;93569.49;;;9.72;39.48
77366;BME280;66430;50.182;11.704;2024-03-02T03:16:27;93571.10;;;9.75;39.56
77366;BME280;66430;50.182;11.704;2024-03-02T03:18:53;93573.96;;;9.72;39.55
77366;BME280;66430;50.182;11.704;2024-03-02T03:21:18;93571.61;;;9.80;39.56
77366;BME280;66430;50.182;11.704;2024-03-02T03:23:44;93573.00;;;9.89;39.46
77366;BME280;66430;50.182;11.704;2024-03-02T03:26:09;93574.14;;;9.72;39.78
77366;BME280;66430;50.182;11.704;2024-03-02T03:28:34;93576.59;;;9.66;39.95
77366;BME280;66430;50.182;11.704;2024-03-02T03:31:00;93575.99;;;9.76;39.89
77366;BME280;66430;50.182;11.704;2024-03-02T03:33:25;93574.73;;;9.68;39.92
77366;BME280;66430;50.182;11.704;2024-03-02T03:35:50;93575.13;;;9.52;40.30
77366;BME280;66430;50.182;11.704;2024-03-02T03:38:16;93575.57;;;8.76;41.41
77366;BME280;66430;50.182;11.704;2024-03-02T03:40:41;93575.00;;;9.41;40.60
77366;BME280;66430;50.182;11.704;2024-03-02T03:43:07;93577.52;;;9.54;40.42
77366;BME280;66430;50.182;11.704;2024-03-02T03:45:33;93579.27;;;9.29;40.63
77366;BME280;66430;50.182;11.704;2024-03-02T03:47:58;93581.78;;;9.30;40.30
77366;BME280;66430;50.182;11.704;2024-03-02T03:50:23;93581.93;;;9.50;40.18
77366;BME280;66430;50.182;11.704;2024-03-02T03:52:49;93585.32;;;9.28;40.18
77366;BME280;66430;50.182;11.704;2024-03-02T03:55:16;93581.87;;;9.58;40.20
77366;BME280;66430;50.182;11.704;2024-03-02T03:57:40;93584.67;;;9.34;40.49
77366;BME280;66430;50.182;11.704;2024-03-02T04:00:08;93587.13;;;9.12;41.09
77366;BME280;66430;50.182;11.704;2024-03-02T04:02:32;93587.40;;;9.27;40.41
77366;BME280;66430;50.182;11.704;2024-03-02T04:04:57;93588.99;;;9.04;40.95
77366;BME280;66430;50.182;11.704;2024-03-02T04:07:22;93588.37;;;9.04;41.31
77366;BME280;66430;50.182;11.704;2024-03-02T04:09:48;93594.85;;;9.14;41.56
77366;BME280;66430;50.182;11.704;2024-03-02T04:12:14;93595.52;;;9.31;40.97
77366;BME280;66430;50.182;11.704;2024-03-02T04:14:40;93596.28;;;9.43;40.90
77366;BME280;66430;50.182;11.704;2024-03-02T04:17:06;93593.13;;;9.05;41.21
77366;BME280;66430;50.182;11.704;2024-03-02T04:19:30;93591.60;;;9.05;41.11
77366;BME280;66430;50.182;11.704;2024-03-02T04:21:56;93594.98;;;9.30;41.12
77366;BME280;66430;50.182;11.704;2024-03-02T04:24:21;93596.27;;;9.52;40.71
77366;BME280;66430;50.182;11.704;2024-03-02T04:26:47;93594.69;;;9.44;40.53
77366;BME280;66430;50.182;11.704;2024-03-02T04:29:12;93596.61;;;9.55;40.35
77366;BME280;66430;50.182;11.704;2024-03-02T04:31:38;93597.80;;;9.84;40.63
77366;BME280;66430;50.182;11.704;2024-03-02T04:34:03;93601.95;;;9.54;40.27
77366;BME280;66430;50.182;11.704;2024-03-02T04:36:29;93602.78;;;9.56;40.33
77366;BME280;66430;50.182;11.704;2024-03-02T04:38:55;93600.87;;;9.46;40.23
77366;BME280;66430;50.182;11.704;2024-03-02T04:41:20;93601.84;;;9.91;39.94
77366;BME280;66430;50.182;11.704;2024-03-02T04:43:46;93605.25;;;9.79;39.98
77366;BME280;66430;50.182;11.704;2024-03-02T04:46:18;93607.64;;;9.97;39.93
77366;BME280;66430;50.182;11.704;2024-03-02T04:48:37;93612.05;;;9.69;39.95
77366;BME280;66430;50.182;11.704;2024-03-02T04:51:07;93614.71;;;9.98;40.04
77366;BME280;66430;50.182;11.704;2024-03-02T04:53:28;93615.86;;;9.72;39.89
77366;BME280;66430;50.182;11.704;2024-03-02T04:55:54;93615.71;;;10.06;39.93
77366;BME280;66430;50.182;11.704;2024-03-02T04:58:19;93617.54;;;9.51;40.11
77366;BME280;66430;50.182;11.704;2024-03-02T05:00:44;93620.23;;;10.05;40.32
77366;BME280;66430;50.182;11.704;2024-03-02T05:03:10;93617.63;;;9.70;40.40
77366;BME280;66430;50.182;11.704;2024-03-02T05:05:35;93616.64;;;9.53;40.68
77366;BME280;66430;50.182;11.704;2024-03-02T05:08:00;93613.29;;;9.58;41.00
77366;BME280;66430;50.182;11.704;2024-03-02T05:10:26;93613.66;;;9.64;40.67
77366;BME280;66430;50.182;11.704;2024-03-02T05:12:52;93609.96;;;10.02;40.65
77366;BME280;66430;50.182;11.704;2024-03-02T05:15:17;93612.12;;;9.49;40.67
77366;BME280;66430;50.182;11.704;2024-03-02T05:17:42;93612.87;;;9.49;41.33
77366;BME280;66430;50.182;11.704;2024-03-02T05:20:09;93613.14;;;9.56;40.94
77366;BME280;66430;50.182;11.704;2024-03-02T05:22:34;93609.72;;;9.44;41.33
77366;BME280;66430;50.182;11.704;2024-03-02T05:24:58;93607.68;;;9.90;41.00
77366;BME280;66430;50.182;11.704;2024-03-02T05:27:24;93606.54;;;9.68;40.76
77366;BME280;66430;50.182;11.704;2024-03-02T05:29:55;93606.62;;;9.89;40.82
77366;BME280;66430;50.182;11.704;2024-03-02T05:32:16;93604.32;;;9.71;40.89
77366;BME280;66430;50.182;11.704;2024-03-02T05:34:41;93604.60;;;9.82;40.79
77366;BME280;66430;50.182;11.704;2024-03-02T05:37:07;93608.12;;;9.70;41.31
77366;BME280;66430;50.182;11.704;2024-03-02T05:39:32;93607.23;;;9.63;40.92
77366;BME280;66430;50.182;11.704;2024-03-02T05:41:58;93606.20;;;9.84;40.98
77366;BME280;66430;50.182;11.704;2024-03-02T05:44:23;93610.26;;;9.73;40.90
77366;BME280;66430;50.182;11.704;2024-03-02T05:46:48;93611.57;;;9.99;40.66
77366;BME280;66430;50.182;11.704;2024-03-02T05:49:14;93612.85;;;10.01;40.75
77366;BME280;66430;50.182;11.704;2024-03-02T05:51:39;93611.65;;;10.09;40.37
77366;BME280;66430;50.182;11.704;2024-03-02T05:54:06;93613.88;;;9.90;40.66
77366;BME280;66430;50.182;11.704;2024-03-02T05:56:30;93616.36;;;9.95;40.35
77366;BME280;66430;50.182;11.704;2024-03-02T05:58:56;93617.77;;;10.10;40.44
77366;BME280;66430;50.182;11.704;2024-03-02T06:01:31;93614.47;;;9.91;40.27
77366;BME280;66430;50.182;11.704;2024-03-02T06:03:49;93613.41;;;9.89;40.16
77366;BME280;66430;50.182;11.704;2024-03-02T06:06:13;93616.00;;;9.57;40.63
77366;BME280;66430;50.182;11.704;2024-03-02T06:08:39;93617.36;;;9.94;40.62
77366;BME280;66430;50.182;11.704;2024-03-02T06:11:04;93620.55;;;9.69;40.67
77366;BME280;66430;50.182;11.704;2024-03-02T06:13:30;93625.36;;;9.91;40.61
77366;BME280;66430;50.182;11.704;2024-03-02T06:15:57;93625.10;;;9.61;40.88
77366;BME280;66430;50.182;11.704;2024-03-02T06:18:21;93625.73;;;9.41;41.40
77366;BME280;66430;50.182;11.704;2024-03-02T06:20:46;93625.72;;;9.80;40.80
77366;BME280;66430;50.182;11.704;2024-03-02T06:23:12;93627.72;;;9.30;41.35
77366;BME280;66430;50.182;11.704;2024-03-02T06:25:37;93629.39;;;9.28;41.12
77366;BME280;66430;50.182;11.704;2024-03-02T06:28:04;93633.64;;;9.23;41.58
77366;BME280;66430;50.182;11.704;2024-03-02T06:30:29;93636.81;;;9.37;41.89
77366;BME280;66430;50.182;11.704;2024-03-02T06:32:55;93636.94;;;9.89;41.43
77366;BME280;66430;50.182;11.704;2024-03-02T06:35:21;93632.33;;;9.95;41.37
77366;BME280;66430;50.182;11.704;2024-03-02T06:37:46;93627.77;;;9.69;41.65
77366;BME280;66430;50.182;11.704;2024-03-02T06:40:12;93631.38;;;9.81;41.46
77366;BME280;66430;50.182;11.704;2024-03-02T06:42:36;93633.11;;;10.08;40.72
77366;BME280;66430;50.182;11.704;2024-03-02T06:45:02;93635.02;;;9.86;41.71
77366;BME280;66430;50.182;11.704;2024-03-02T06:47:27;93635.76;;;10.04;41.02
77366;BME280;66430;50.182;11.704;2024-03-02T06:49:52;93635.56;;;10.24;40.84
77366;BME280;66430;50.182;11.704;2024-03-02T06:52:17;93637.23;;;9.89;40.90
77366;BME280;66430;50.182;11.704;2024-03-02T06:54:42;93639.37;;;10.47;40.51
77366;BME280;66430;50.182;11.704;2024-03-02T06:57:08;93640.74;;;10.31;40.37
77366;BME280;66430;50.182;11.704;2024-03-02T06:59:34;93642.74;;;10.72;40.29
77366;BME280;66430;50.182;11.704;2024-03-02T07:02:00;93644.06;;;10.31;40.26
77366;BME280;66430;50.182;11.704;2024-03-02T07:21:23;93652.12;;;10.17;41.75
77366;BME280;66430;50.182;11.704;2024-03-02T07:23:49;93649.52;;;10.72;41.43
77366;BME280;66430;50.182;11.704;2024-03-02T07:26:14;93652.16;;;10.40;41.61
77366;BME280;66430;50.182;11.704;2024-03-02T07:28:39;93651.56;;;10.48;41.61
77366;BME280;66430;50.182;11.704;2024-03-02T07:31:05;93653.65;;;10.54;41.05
77366;BME280;66430;50.182;11.704;2024-03-02T07:33:30;93654.84;;;10.19;41.29
77366;BME280;66430;50.182;11.704;2024-03-02T07:35:55;93654.88;;;10.58;41.16
77366;BME280;66430;50.182;11.704;2024-03-02T07:38:20;93654.58;;;10.87;40.73
77366;BME280;66430;50.182;11.704;2024-03-02T07:40:46;93654.60;;;10.77;40.20
77366;BME280;66430;50.182;11.704;2024-03-02T07:43:11;93658.84;;;10.70;40.30
77366;BME280;66430;50.182;11.704;2024-03-02T07:45:36;93658.88;;;10.99;40.64
77366;BME280;66430;50.182;11.704;2024-03-02T07:48:01;93658.14;;;10.95;40.29
77366;BME280;66430;50.182;11.704;2024-03-02T07:50:29;93659.22;;;10.89;40.68
77366;BME280;66430;50.182;11.704;2024-03-02T07:52:52;93656.55;;;10.98;40.79
77366;BME280;66430;50.182;11.704;2024-03-02T07:55:18;93654.34;;;10.97;40.63
77366;BME280;66430;50.182;11.704;2024-03-02T07:57:43;93657.40;;;10.86;40.29
77366;BME280;66430;50.182;11.704;2024-03-02T08:00:09;93659.43;;;11.18;40.08
77366;BME280;66430;50.182;11.704;2024-03-02T08:02:33;93666.25;;;10.71;40.53
77366;BME280;66430;50.182;11.704;2024-03-02T08:04:59;93663.03;;;10.84;40.79
77366;BME280;66430;50.182;11.704;2024-03-02T08:07:26;93665.43;;;10.26;41.23
77366;BME280;66430;50.182;11.704;2024-03-02T08:09:49;93665.62;;;10.38;41.08
77366;BME280;66430;50.182;11.704;2024-03-02T08:12:15;93666.13;;;11.08;40.86
77366;BME280;66430;50.182;11.704;2024-03-02T08:14:45;93667.35;;;10.78;40.83
77366;BME280;66430;50.182;11.704;2024-03-02T08:17:06;93662.08;;;11.17;40.13
77366;BME280;66430;50.182;11.704;2024-03-02T08:19:32;93664.02;;;11.05;40.16
77366;BME280;66430;50.182;11.704;2024-03-02T08:21:57;93663.41;;;11.45;39.91
77366;BME280;66430;50.182;11.704;2024-03-02T08:24:24;93664.91;;;11.37;40.28
77366;BME280;66430;50.182;11.704;2024-03-02T08:26:47;93664.35;;;11.60;39.79
77366;BME280;66430;50.182;11.704;2024-03-02T08:29:13;93666.54;;;11.22;40.41
77366;BME280;66430;50.182;11.704;2024-03-02T08:31:38;93666.41;;;11.30;40.23
77366;BME280;66430;50.182;11.704;2024-03-02T08:34:03;93667.93;;;11.23;40.20
77366;BME280;66430;50.182;11.704;2024-03-02T08:36:29;93670.00;;;11.11;40.81
77366;BME280;66430;50.182;11.704;2024-03-02T08:38:55;93671.60;;;11.32;40.38
77366;BME280;66430;50.182;11.704;2024-03-02T08:41:20;93672.85;;;11.35;39.56
77366;BME280;66430;50.182;11.704;2024-03-02T08:43:45;93671.79;;;11.26;40.22
77366;BME280;66430;50.182;11.704;2024-03-02T08:46:10;93673.23;;;11.22;40.01
77366;BME280;66430;50.182;11.704;2024-03-02T08:48:35;93678.12;;;11.77;39.35
77366;BME280;66430;50.182;11.704;2024-03-02T08:51:01;93677.00;;;11.90;39.14
77366;BME280;66430;50.182;11.704;2024-03-02T08:53:27;93679.37;;;12.09;39.17
77366;BME280;66430;50.182;11.704;2024-03-02T08:55:52;93681.44;;;12.23;38.85
77366;BME280;66430;50.182;11.704;2024-03-02T08:58:17;93683.28;;;11.83;39.19
77366;BME280;66430;50.182;11.704;2024-03-02T09:00:43;93683.17;;;12.06;38.84
77366;BME280;66430;50.182;11.704;2024-03-02T09:03:09;93683.93;;;11.80;40.15
77366;BME280;66430;50.182;11.704;2024-03-02T09:05:34;93686.49;;;12.47;38.80
77366;BME280;66430;50.182;11.704;2024-03-02T09:08:01;93688.94;;;11.59;39.20
77366;BME280;66430;50.182;11.704;2024-03-02T09:10:25;93691.66;;;12.05;38.95
77366;BME280;66430;50.182;11.704;2024-03-02T09:12:50;93694.00;;;12.12;38.86
77366;BME280;66430;50.182;11.704;2024-03-02T09:15:16;93695.06;;;12.05;38.73
77366;BME280;66430;50.182;11.704;2024-03-02T09:17:41;93696.54;;;12.59;38.65
77366;BME280;66430;50.182;11.704;2024-03-02T09:20:08;93690.81;;;11.80;38.65
77366;BME280;66430;50.182;11.704;2024-03-02T09:22:34;93695.33;;;12.21;38.83
77366;BME280;66430;50.182;11.704;2024-03-02T09:24:58;93694.32;;;12.21;38.65
77366;BME280;66430;50.182;11.704;2024-03-02T09:27:24;93696.51;;;12.39;38.35
77366;BME280;66430;50.182;11.704;2024-03-02T09:29:52;93699.56;;;12.73;38.31
77366;BME280;66430;50.182;11.704;2024-03-02T09:32:14;93701.05;;;12.60;38.49
77366;BME280;66430;50.182;11.704;2024-03-02T09:34:40;93705.40;;;12.29;38.10
77366;BME280;66430;50.182;11.704;2024-03-02T09:37:08;93704.18;;;12.70;37.18
77366;BME280;66430;50.182;11.704;2024-03-02T09:39:31;93705.56;;;12.82;37.59
77366;BME280;66430;50.182;11.704;2024-03-02T09:41:56;93704.65;;;12.95;37.92
77366;BME280;66430;50.182;11.704;2024-03-02T09:44:21;93701.95;;;12.54;37.83
77366;BME280;66430;50.182;11.704;2024-03-02T09:46:49;93696.37;;;13.34;37.53
77366;BME280;66430;50.182;11.704;2024-03-02T09:49:12;93697.82;;;13.07;37.80
77366;BME280;66430;50.182;11.704;2024-03-02T09:51:37;93696.06;;;13.12;38.09
77366;BME280;66430;50.182;11.704;2024-03-02T09:54:03;93696.95;;;13.51;37.51
77366;BME280;66430;50.182;11.704;2024-03-02T09:56:28;93691.72;;;13.23;37.09
77366;BME280;66430;50.182;11.704;2024-03-02T09:58:53;93691.50;;;13.11;37.58
77366;BME280;66430;50.182;11.704;2024-03-02T10:01:18;93693.79;;;12.61;38.37
77366;BME280;66430;50.182;11.704;2024-03-02T10:03:45;93693.83;;;13.04;37.54
77366;BME280;66430;50.182;11.704;2024-03-02T10:06:20;93694.85;;;12.92;37.25
77366;BME280;66430;50.182;11.704;2024-03-02T10:08:42;93695.85;;;12.78;35.88
77366;BME280;66430;50.182;11.704;2024-03-02T10:11:00;93698.36;;;13.51;36.27
77366;BME280;66430;50.182;11.704;2024-03-02T10:13:26;93697.28;;;13.22;36.47
77366;BME280;66430;50.182;11.704;2024-03-02T10:15:51;93698.04;;;13.63;35.55
77366;BME280;66430;50.182;11.704;2024-03-02T10:20:41;93696.64;;;13.65;35.61
77366;BME280;66430;50.182;11.704;2024-03-02T10:23:11;93695.62;;;13.48;35.64
77366;BME280;66430;50.182;11.704;2024-03-02T10:25:35;93693.97;;;13.55;35.95
77366;BME280;66430;50.182;11.704;2024-03-02T10:27:58;93697.93;;;13.52;35.76
77366;BME280;66430;50.182;11.704;2024-03-02T10:30:23;93698.29;;;13.99;35.69
77366;BME280;66430;50.182;11.704;2024-03-02T10:32:49;93697.73;;;13.85;35.66
77366;BME280;66430;50.182;11.704;2024-03-02T10:35:13;93694.39;;;13.85;35.51
77366;BME280;66430;50.182;11.704;2024-03-02T10:37:39;93694.60;;;13.68;35.92
77366;BME280;66430;50.182;11.704;2024-03-02T10:40:06;93692.40;;;13.87;35.55
77366;BME280;66430;50.182;11.704;2024-03-02T10:42:30;93691.72;;;14.35;35.10
77366;BME280;66430;50.182;11.704;2024-03-02T10:44:55;93695.01;;;14.09;34.72
77366;BME280;66430;50.182;11.704;2024-03-02T10:47:21;93689.71;;;13.83;34.82
77366;BME280;66430;50.182;11.704;2024-03-02T10:49:47;93691.71;;;13.68;33.90
77366;BME280;66430;50.182;11.704;2024-03-02T10:52:12;93689.03;;;14.13;33.41
77366;BME280;66430;50.182;11.704;2024-03-02T10:54:37;93687.56;;;14.26;35.09
77366;BME280;66430;50.182;11.704;2024-03-02T10:57:04;93686.58;;;14.35;34.43
77366;BME280;66430;50.182;11.704;2024-03-02T10:59:32;93684.19;;;14.35;34.43
77366;BME280;66430;50.182;11.704;2024-03-02T11:01:56;93683.03;;;14.43;33.27
77366;BME280;66430;50.182;11.704;2024-03-02T11:04:19;93681.02;;;14.60;33.97
77366;BME280;66430;50.182;11.704;2024-03-02T11:06:49;93685.06;;;14.50;34.08
77366;BME280;66430;50.182;11.704;2024-03-02T11:09:10;93680.04;;;14.47;33.70
77366;BME280;66430;50.182;11.704;2024-03-02T11:11:37;93678.51;;;14.36;34.38
77366;BME280;66430;50.182;11.704;2024-03-02T11:14:02;93680.57;;;14.04;34.62
77366;BME280;66430;50.182;11.704;2024-03-02T11:16:32;93676.58;;;14.17;34.89
77366;BME280;66430;50.182;11.704;2024-03-02T11:18:51;93677.22;;;14.50;34.20
77366;BME280;66430;50.182;11.704;2024-03-02T11:21:16;93677.67;;;14.42;34.36
77366;BME280;66430;50.182;11.704;2024-03-02T11:23:42;93676.12;;;14.54;33.56
77366;BME280;66430;50.182;11.704;2024-03-02T11:26:17;93676.82;;;14.42;33.46
77366;BME280;66430;50.182;11.704;2024-03-02T11:28:35;93674.64;;;14.46;33.63
77366;BME280;66430;50.182;11.704;2024-03-02T11:30:58;93673.49;;;14.74;33.70
77366;BME280;66430;50.182;11.704;2024-03-02T11:33:24;93669.57;;;14.77;33.49
77366;BME280;66430;50.182;11.704;2024-03-02T11:35:50;93660.27;;;14.48;33.54
77366;BME280;66430;50.182;11.704;2024-03-02T11:38:15;93658.08;;;14.58;33.86
77366;BME280;66430;50.182;11.704;2024-03-02T11:40:40;93650.67;;;14.24;33.96
77366;BME280;66430;50.182;11.704;2024-03-02T11:43:05;93647.82;;;14.52;32.88
77366;BME280;66430;50.182;11.704;2024-03-02T11:45:31;93646.28;;;14.74;33.02
77366;BME280;66430;50.182;11.704;2024-03-02T11:47:57;93643.80;;;14.70;33.30
77366;BME280;66430;50.182;11.704;2024-03-02T11:50:29;93643.93;;;14.18;33.17
77366;BME280;66430;50.182;11.704;2024-03-02T11:52:47;93646.17;;;14.68;32.57
77366;BME280;66430;50.182;11.704;2024-03-02T11:55:12;93648.00;;;14.31;33.71
77366;BME280;66430;50.182;11.704;2024-03-02T11:57:37;93644.50;;;14.51;33.31
77366;BME280;66430;50.182;11.704;2024-03-02T12:00:02;93640.77;;;14.04;32.91
77366;BME280;66430;50.182;11.704;2024-03-02T12:02:28;93637.57;;;14.13;32.74
77366;BME280;66430;50.182;11.704;2024-03-02T12:04:53;93638.74;;;14.54;32.55
77366;BME280;66430;50.182;11.704;2024-03-02T12:07:19;93637.66;;;14.07;32.37
77366;BME280;66430;50.182;11.704;2024-03-02T12:09:44;93643.55;;;14.18;32.64
77366;BME280;66430;50.182;11.704;2024-03-02T12:12:10;93646.05;;;14.44;31.36
77366;BME280;66430;50.182;11.704;2024-03-02T12:14:36;93644.03;;;14.26;31.38
77366;BME280;66430;50.182;11.704;2024-03-02T12:17:01;93641.80;;;14.52;30.76
77366;BME280;66430;50.182;11.704;2024-03-02T12:19:27;93638.21;;;14.13;30.86
77366;BME280;66430;50.182;11.704;2024-03-02T12:21:52;93637.85;;;14.76;31.16
77366;BME280;66430;50.182;11.704;2024-03-02T12:24:17;93631.95;;;14.43;31.74
77366;BME280;66430;50.182;11.704;2024-03-02T12:26:43;93627.30;;;14.13;32.07
77366;BME280;66430;50.182;11.704;2024-03-02T12:29:07;93625.32;;;14.58;31.73
77366;BME280;66430;50.182;11.704;2024-03-02T12:31:34;93621.37;;;14.43;30.76
77366;BME280;66430;50.182;11.704;2024-03-02T12:33:59;93617.73;;;14.49;30.56
77366;BME280;66430;50.182;11.704;2024-03-02T12:36:24;93621.40;;;14.67;30.56
77366;BME280;66430;50.182;11.704;2024-03-02T12:38:53;93620.88;;;14.52;31.07
77366;BME280;66430;50.182;11.704;2024-03-02T12:41:15;93617.26;;;14.68;31.14
77366;BME280;66430;50.182;11.704;2024-03-02T12:43:40;93614.82;;;14.22;31.27
77366;BME280;66430;50.182;11.704;2024-03-02T12:46:05;93611.62;;;14.07;31.85
77366;BME280;66430;50.182;11.704;2024-03-02T12:48:31;93609.57;;;14.37;31.40
77366;BME280;66430;50.182;11.704;2024-03-02T12:50:56;93607.09;;;14.51;31.17
77366;BME280;66430;50.182;11.704;2024-03-02T12:53:22;93602.52;;;14.11;32.12
77366;BME280;66430;50.182;11.704;2024-03-02T12:55:49;93597.64;;;14.56;31.37
77366;BME280;66430;50.182;11.704;2024-03-02T12:58:18;93598.50;;;14.91;31.11
77366;BME280;66430;50.182;11.704;2024-03-02T13:00:38;93598.54;;;14.92;30.22
77366;BME280;66430;50.182;11.704;2024-03-02T13:03:03;93595.75;;;14.60;30.20